MXD411 WAPP-WAMM
Flight info
| Callsign | MXD411 |
|---|---|
| Flight time | 1h 5m |
| Altitude | 32000 |
| Route | BELBA W55 RUMBO |
| Aircraft | B38M/M-SDE1FGHILORVWXY/HB1 |
Departure
| Time | 2026-04-12 14:28 |
|---|---|
| Airport | Pattimura International Airport (WAPP) |
Arrival
| Time | 2026-04-12 15:34 |
|---|---|
| Airport | Sam Ratulangi International Airport (WAMM) |
| Time | Latitude | Longitude | Altitude | Speed | Heading |
|---|---|---|---|---|---|
| 2026-04-12 13:03 | -3.70631 | 128.08893 | 38 ft | 0 kts | 359° |
| 2026-04-12 14:20 | -3.70651 | 128.08893 | 38 ft | 4 kts | 7° |
| 2026-04-12 14:20 | -3.70677 | 128.08886 | 34 ft | 4 kts | 27° |
| 2026-04-12 14:20 | -3.70694 | 128.08870 | 38 ft | 4 kts | 75° |
| 2026-04-12 14:21 | -3.70696 | 128.08862 | 38 ft | 1 kts | 90° |
| 2026-04-12 14:23 | -3.70696 | 128.08865 | 38 ft | 1 kts | 90° |
| 2026-04-12 14:23 | -3.70696 | 128.08887 | 38 ft | 5 kts | 90° |
| 2026-04-12 14:24 | -3.70695 | 128.08937 | 38 ft | 9 kts | 89° |
| 2026-04-12 14:24 | -3.70695 | 128.09017 | 38 ft | 13 kts | 90° |
| 2026-04-12 14:24 | -3.70734 | 128.09104 | 38 ft | 16 kts | 135° |
| 2026-04-12 14:24 | -3.70824 | 128.09166 | 38 ft | 15 kts | 188° |
| 2026-04-12 14:25 | -3.70899 | 128.09095 | 37 ft | 16 kts | 226° |
| 2026-04-12 14:25 | -3.71006 | 128.08989 | 37 ft | 28 kts | 225° |
| 2026-04-12 14:25 | -3.71154 | 128.08840 | 36 ft | 30 kts | 225° |
| 2026-04-12 14:25 | -3.71294 | 128.08702 | 37 ft | 28 kts | 225° |
| 2026-04-12 14:26 | -3.71436 | 128.08560 | 38 ft | 29 kts | 225° |
| 2026-04-12 14:26 | -3.71580 | 128.08417 | 38 ft | 30 kts | 225° |
| 2026-04-12 14:26 | -3.71720 | 128.08278 | 39 ft | 18 kts | 225° |
| 2026-04-12 14:26 | -3.71757 | 128.08193 | 37 ft | 11 kts | 269° |
| 2026-04-12 14:27 | -3.71795 | 128.08157 | 37 ft | 7 kts | 154° |
| 2026-04-12 14:27 | -3.71800 | 128.08197 | 37 ft | 7 kts | 57° |
| 2026-04-12 14:27 | -3.71764 | 128.08234 | 38 ft | 9 kts | 45° |
| 2026-04-12 14:27 | -3.71576 | 128.08421 | 38 ft | 80 kts | 45° |
| 2026-04-12 14:28 | -3.70993 | 128.09001 | 37 ft | 154 kts | 45° |
| 2026-04-12 14:28 | -3.70123 | 128.09874 | 301 ft | 195 kts | 44° |
| 2026-04-12 14:28 | -3.69124 | 128.10907 | 1012 ft | 214 kts | 46° |
| 2026-04-12 14:28 | -3.68344 | 128.12124 | 2157 ft | 211 kts | 72° |
| 2026-04-12 14:29 | -3.68139 | 128.13612 | 3036 ft | 220 kts | 97° |
| 2026-04-12 14:29 | -3.68327 | 128.15104 | 4118 ft | 221 kts | 95° |
| 2026-04-12 14:29 | -3.68240 | 128.16666 | 5063 ft | 229 kts | 79° |
| 2026-04-12 14:29 | -3.67697 | 128.18176 | 6054 ft | 234 kts | 62° |
| 2026-04-12 14:30 | -3.66750 | 128.19544 | 6867 ft | 246 kts | 52° |
| 2026-04-12 14:30 | -3.65654 | 128.20942 | 7530 ft | 264 kts | 52° |
| 2026-04-12 14:30 | -3.64509 | 128.22419 | 8394 ft | 270 kts | 52° |
| 2026-04-12 14:30 | -3.63361 | 128.23917 | 9366 ft | 275 kts | 53° |
| 2026-04-12 14:31 | -3.62377 | 128.25584 | 10238 ft | 281 kts | 60° |
| 2026-04-12 14:31 | -3.61434 | 128.27315 | 11090 ft | 285 kts | 60° |
| 2026-04-12 14:31 | -3.60465 | 128.29061 | 11936 ft | 289 kts | 60° |
| 2026-04-12 14:31 | -3.59471 | 128.30834 | 12779 ft | 293 kts | 59° |
| 2026-04-12 14:32 | -3.58475 | 128.32597 | 13606 ft | 297 kts | 59° |
| 2026-04-12 14:32 | -3.57348 | 128.34347 | 14326 ft | 300 kts | 49° |
| 2026-04-12 14:32 | -3.55835 | 128.35787 | 15028 ft | 302 kts | 32° |
| 2026-04-12 14:32 | -3.53947 | 128.36690 | 15717 ft | 301 kts | 11° |
| 2026-04-12 14:33 | -3.51869 | 128.36889 | 16399 ft | 300 kts | 352° |
| 2026-04-12 14:33 | -3.49844 | 128.36431 | 17083 ft | 299 kts | 334° |
| 2026-04-12 14:33 | -3.48064 | 128.35383 | 17774 ft | 297 kts | 317° |
| 2026-04-12 14:33 | -3.46618 | 128.33863 | 18204 ft | 309 kts | 309° |
| 2026-04-12 14:34 | -3.45143 | 128.32218 | 18395 ft | 328 kts | 310° |
| 2026-04-12 14:34 | -3.43562 | 128.30486 | 18592 ft | 344 kts | 310° |
| 2026-04-12 14:34 | -3.41910 | 128.28694 | 18932 ft | 354 kts | 311° |
| 2026-04-12 14:34 | -3.40235 | 128.26886 | 19518 ft | 355 kts | 311° |
| 2026-04-12 14:35 | -3.38545 | 128.25065 | 20028 ft | 359 kts | 311° |
| 2026-04-12 14:35 | -3.36836 | 128.23226 | 20571 ft | 362 kts | 311° |
| 2026-04-12 14:35 | -3.35129 | 128.21389 | 21095 ft | 365 kts | 311° |
| 2026-04-12 14:35 | -3.33394 | 128.19522 | 21609 ft | 368 kts | 311° |
| 2026-04-12 14:36 | -3.31645 | 128.17640 | 22103 ft | 371 kts | 312° |
| 2026-04-12 14:36 | -3.29878 | 128.15740 | 22606 ft | 374 kts | 312° |
| 2026-04-12 14:36 | -3.28097 | 128.13824 | 23141 ft | 376 kts | 312° |
| 2026-04-12 14:36 | -3.26310 | 128.11902 | 23633 ft | 379 kts | 312° |
| 2026-04-12 14:37 | -3.24508 | 128.09963 | 24025 ft | 382 kts | 312° |
| 2026-04-12 14:37 | -3.22693 | 128.08011 | 24424 ft | 384 kts | 312° |
| 2026-04-12 14:37 | -3.20866 | 128.06046 | 24813 ft | 387 kts | 312° |
| 2026-04-12 14:37 | -3.19016 | 128.04057 | 25202 ft | 391 kts | 312° |
| 2026-04-12 14:38 | -3.17159 | 128.02060 | 25589 ft | 394 kts | 312° |
| 2026-04-12 14:38 | -3.15288 | 128.00047 | 25982 ft | 396 kts | 311° |
| 2026-04-12 14:38 | -3.13400 | 127.98013 | 26369 ft | 400 kts | 311° |
| 2026-04-12 14:38 | -3.11498 | 127.95966 | 26753 ft | 402 kts | 311° |
| 2026-04-12 14:39 | -3.09612 | 127.93935 | 27125 ft | 405 kts | 311° |
| 2026-04-12 14:39 | -3.07685 | 127.91860 | 27491 ft | 408 kts | 311° |
| 2026-04-12 14:39 | -3.05742 | 127.89767 | 27846 ft | 411 kts | 311° |
| 2026-04-12 14:39 | -3.03788 | 127.87663 | 28206 ft | 414 kts | 311° |
| 2026-04-12 14:40 | -3.01820 | 127.85544 | 28565 ft | 417 kts | 311° |
| 2026-04-12 14:40 | -2.99839 | 127.83413 | 28916 ft | 419 kts | 311° |
| 2026-04-12 14:40 | -2.97845 | 127.81265 | 29296 ft | 421 kts | 311° |
| 2026-04-12 14:40 | -2.95846 | 127.79113 | 29631 ft | 424 kts | 311° |
| 2026-04-12 14:41 | -2.93851 | 127.76966 | 29951 ft | 427 kts | 311° |
| 2026-04-12 14:41 | -2.91814 | 127.74781 | 30233 ft | 430 kts | 313° |
| 2026-04-12 14:41 | -2.89475 | 127.72918 | 30527 ft | 433 kts | 327° |
| 2026-04-12 14:41 | -2.86916 | 127.71313 | 30802 ft | 435 kts | 325° |
| 2026-04-12 14:42 | -2.84367 | 127.69661 | 31117 ft | 436 kts | 326° |
| 2026-04-12 14:42 | -2.81811 | 127.68026 | 31497 ft | 436 kts | 326° |
| 2026-04-12 14:42 | -2.79253 | 127.66399 | 31834 ft | 436 kts | 326° |
| 2026-04-12 14:42 | -2.76723 | 127.64793 | 31929 ft | 435 kts | 326° |
| 2026-04-12 14:43 | -2.71637 | 127.61567 | 31924 ft | 432 kts | 326° |
| 2026-04-12 14:43 | -2.66556 | 127.58346 | 31924 ft | 432 kts | 326° |
| 2026-04-12 14:44 | -2.61482 | 127.55128 | 31925 ft | 432 kts | 326° |
| 2026-04-12 14:44 | -2.56404 | 127.51908 | 31924 ft | 432 kts | 326° |
| 2026-04-12 14:45 | -2.52184 | 127.49233 | 31924 ft | 432 kts | 326° |
| 2026-04-12 14:45 | -2.47113 | 127.46019 | 31924 ft | 431 kts | 326° |
| 2026-04-12 14:46 | -2.41197 | 127.42270 | 31926 ft | 430 kts | 326° |
| 2026-04-12 14:46 | -2.36172 | 127.39085 | 31924 ft | 430 kts | 326° |
| 2026-04-12 14:47 | -2.31976 | 127.36425 | 31926 ft | 429 kts | 326° |
| 2026-04-12 14:47 | -2.26927 | 127.33226 | 31924 ft | 430 kts | 326° |
| 2026-04-12 14:48 | -2.21870 | 127.30028 | 31925 ft | 429 kts | 326° |
| 2026-04-12 14:48 | -2.16813 | 127.26847 | 31925 ft | 429 kts | 326° |
| 2026-04-12 14:49 | -2.11754 | 127.23664 | 31928 ft | 429 kts | 326° |
| 2026-04-12 14:49 | -2.06698 | 127.20483 | 31928 ft | 429 kts | 326° |
| 2026-04-12 14:50 | -2.01649 | 127.17306 | 31925 ft | 429 kts | 326° |
| 2026-04-12 14:50 | -1.96631 | 127.14150 | 31924 ft | 429 kts | 326° |
| 2026-04-12 14:51 | -1.91581 | 127.10973 | 31926 ft | 429 kts | 326° |
| 2026-04-12 14:51 | -1.86526 | 127.07794 | 31928 ft | 429 kts | 326° |
| 2026-04-12 14:52 | -1.81479 | 127.04619 | 31925 ft | 428 kts | 326° |
| 2026-04-12 14:52 | -1.76449 | 127.01456 | 31924 ft | 427 kts | 326° |
| 2026-04-12 14:53 | -1.71419 | 126.98292 | 31925 ft | 427 kts | 326° |
| 2026-04-12 14:53 | -1.66381 | 126.95125 | 31927 ft | 427 kts | 326° |
| 2026-04-12 14:54 | -1.61378 | 126.91979 | 31924 ft | 427 kts | 326° |
| 2026-04-12 14:54 | -1.56336 | 126.88809 | 31924 ft | 427 kts | 326° |
| 2026-04-12 14:55 | -1.51309 | 126.85647 | 31926 ft | 427 kts | 326° |
| 2026-04-12 14:55 | -1.46278 | 126.82485 | 31925 ft | 427 kts | 326° |
| 2026-04-12 14:56 | -1.41247 | 126.79323 | 31926 ft | 427 kts | 326° |
| 2026-04-12 14:56 | -1.36224 | 126.76165 | 31925 ft | 427 kts | 326° |
| 2026-04-12 14:57 | -1.31228 | 126.73025 | 31923 ft | 427 kts | 326° |
| 2026-04-12 14:57 | -1.26197 | 126.69862 | 31924 ft | 427 kts | 326° |
| 2026-04-12 14:58 | -1.21169 | 126.66702 | 31926 ft | 427 kts | 326° |
| 2026-04-12 14:58 | -1.16154 | 126.63550 | 31923 ft | 425 kts | 326° |
| 2026-04-12 14:59 | -1.11145 | 126.60403 | 31924 ft | 425 kts | 326° |
| 2026-04-12 14:59 | -1.06141 | 126.57257 | 31924 ft | 425 kts | 326° |
| 2026-04-12 15:00 | -0.98623 | 126.52533 | 31926 ft | 425 kts | 326° |
| 2026-04-12 15:01 | -0.93623 | 126.49391 | 31926 ft | 425 kts | 326° |
| 2026-04-12 15:01 | -0.88643 | 126.46258 | 31924 ft | 426 kts | 325° |
| 2026-04-12 15:02 | -0.83755 | 126.42907 | 31925 ft | 426 kts | 324° |
| 2026-04-12 15:02 | -0.78859 | 126.39564 | 31926 ft | 426 kts | 324° |
| 2026-04-12 15:03 | -0.73966 | 126.36227 | 31926 ft | 426 kts | 324° |
| 2026-04-12 15:03 | -0.69073 | 126.32890 | 31924 ft | 425 kts | 324° |
| 2026-04-12 15:04 | -0.64184 | 126.29557 | 31925 ft | 425 kts | 324° |
| 2026-04-12 15:04 | -0.59287 | 126.26218 | 31923 ft | 426 kts | 324° |
| 2026-04-12 15:05 | -0.54396 | 126.22882 | 31924 ft | 425 kts | 324° |
| 2026-04-12 15:05 | -0.49543 | 126.19573 | 31924 ft | 425 kts | 324° |
| 2026-04-12 15:06 | -0.44660 | 126.16244 | 31922 ft | 425 kts | 324° |
| 2026-04-12 15:06 | -0.39780 | 126.12916 | 31921 ft | 424 kts | 324° |
| 2026-04-12 15:07 | -0.34903 | 126.09591 | 31922 ft | 424 kts | 324° |
| 2026-04-12 15:07 | -0.30020 | 126.06262 | 31924 ft | 424 kts | 324° |
| 2026-04-12 15:08 | -0.25139 | 126.02934 | 31921 ft | 424 kts | 324° |
| 2026-04-12 15:08 | -0.20283 | 125.99623 | 31922 ft | 424 kts | 324° |
| 2026-04-12 15:09 | -0.15403 | 125.96296 | 31925 ft | 424 kts | 324° |
| 2026-04-12 15:09 | -0.10542 | 125.92981 | 31920 ft | 415 kts | 324° |
| 2026-04-12 15:09 | -0.08199 | 125.91384 | 31911 ft | 400 kts | 324° |
| 2026-04-12 15:10 | -0.05942 | 125.89824 | 31735 ft | 390 kts | 321° |
| 2026-04-12 15:10 | -0.03833 | 125.88121 | 31257 ft | 389 kts | 320° |
| 2026-04-12 15:10 | -0.01724 | 125.86428 | 30752 ft | 390 kts | 320° |
| 2026-04-12 15:10 | 0.00396 | 125.84742 | 30289 ft | 389 kts | 321° |
| 2026-04-12 15:11 | 0.02513 | 125.83065 | 29821 ft | 388 kts | 321° |
| 2026-04-12 15:11 | 0.04621 | 125.81398 | 29315 ft | 386 kts | 321° |
| 2026-04-12 15:11 | 0.06725 | 125.79735 | 28862 ft | 384 kts | 321° |
| 2026-04-12 15:11 | 0.08809 | 125.78088 | 28440 ft | 381 kts | 321° |
| 2026-04-12 15:12 | 0.10880 | 125.76451 | 28020 ft | 378 kts | 321° |
| 2026-04-12 15:12 | 0.12911 | 125.74846 | 27609 ft | 376 kts | 321° |
| 2026-04-12 15:12 | 0.14955 | 125.73230 | 27196 ft | 374 kts | 321° |
| 2026-04-12 15:12 | 0.16996 | 125.71618 | 26787 ft | 372 kts | 321° |
| 2026-04-12 15:13 | 0.19022 | 125.70016 | 26386 ft | 370 kts | 321° |
| 2026-04-12 15:13 | 0.21039 | 125.68423 | 25992 ft | 369 kts | 321° |
| 2026-04-12 15:13 | 0.23048 | 125.66836 | 25599 ft | 367 kts | 321° |
| 2026-04-12 15:13 | 0.25047 | 125.65256 | 25198 ft | 366 kts | 321° |
| 2026-04-12 15:14 | 0.27040 | 125.63681 | 24827 ft | 365 kts | 321° |
| 2026-04-12 15:14 | 0.29026 | 125.62112 | 24448 ft | 364 kts | 321° |
| 2026-04-12 15:14 | 0.31009 | 125.60544 | 24077 ft | 363 kts | 321° |
| 2026-04-12 15:14 | 0.32985 | 125.58983 | 23699 ft | 362 kts | 321° |
| 2026-04-12 15:15 | 0.34963 | 125.57420 | 23291 ft | 361 kts | 321° |
| 2026-04-12 15:15 | 0.36933 | 125.55863 | 22872 ft | 360 kts | 321° |
| 2026-04-12 15:15 | 0.38860 | 125.54340 | 22505 ft | 357 kts | 321° |
| 2026-04-12 15:15 | 0.40803 | 125.52804 | 22142 ft | 354 kts | 321° |
| 2026-04-12 15:16 | 0.42728 | 125.51283 | 21784 ft | 351 kts | 321° |
| 2026-04-12 15:16 | 0.44639 | 125.49773 | 21435 ft | 349 kts | 321° |
| 2026-04-12 15:16 | 0.46533 | 125.48276 | 21091 ft | 346 kts | 321° |
| 2026-04-12 15:16 | 0.48414 | 125.46790 | 20754 ft | 343 kts | 321° |
| 2026-04-12 15:17 | 0.50280 | 125.45315 | 20412 ft | 341 kts | 321° |
| 2026-04-12 15:17 | 0.52134 | 125.43850 | 20071 ft | 338 kts | 321° |
| 2026-04-12 15:17 | 0.53975 | 125.42394 | 19736 ft | 336 kts | 321° |
| 2026-04-12 15:17 | 0.55800 | 125.40952 | 19403 ft | 334 kts | 321° |
| 2026-04-12 15:18 | 0.57620 | 125.39514 | 19074 ft | 332 kts | 320° |
| 2026-04-12 15:18 | 0.59437 | 125.38076 | 18607 ft | 335 kts | 320° |
| 2026-04-12 15:18 | 0.61263 | 125.36630 | 18241 ft | 334 kts | 320° |
| 2026-04-12 15:18 | 0.63090 | 125.35184 | 17803 ft | 335 kts | 320° |
| 2026-04-12 15:19 | 0.64913 | 125.33741 | 17375 ft | 334 kts | 320° |
| 2026-04-12 15:19 | 0.66738 | 125.32297 | 16957 ft | 334 kts | 320° |
| 2026-04-12 15:19 | 0.68523 | 125.30884 | 16550 ft | 327 kts | 320° |
| 2026-04-12 15:19 | 0.70281 | 125.29492 | 16153 ft | 317 kts | 320° |
| 2026-04-12 15:20 | 0.71988 | 125.28141 | 15774 ft | 308 kts | 320° |
| 2026-04-12 15:20 | 0.73664 | 125.26814 | 15397 ft | 307 kts | 320° |
| 2026-04-12 15:20 | 0.75342 | 125.25486 | 15019 ft | 307 kts | 320° |
| 2026-04-12 15:20 | 0.77017 | 125.24160 | 14638 ft | 308 kts | 320° |
| 2026-04-12 15:21 | 0.78699 | 125.22829 | 14255 ft | 309 kts | 320° |
| 2026-04-12 15:21 | 0.80376 | 125.21502 | 13870 ft | 303 kts | 320° |
| 2026-04-12 15:21 | 0.81997 | 125.20218 | 13481 ft | 300 kts | 320° |
| 2026-04-12 15:21 | 0.83633 | 125.18922 | 13087 ft | 300 kts | 320° |
| 2026-04-12 15:22 | 0.85274 | 125.17623 | 12700 ft | 300 kts | 320° |
| 2026-04-12 15:22 | 0.86910 | 125.16328 | 12328 ft | 299 kts | 320° |
| 2026-04-12 15:22 | 0.88543 | 125.15035 | 11957 ft | 299 kts | 320° |
| 2026-04-12 15:22 | 0.90177 | 125.13741 | 11594 ft | 299 kts | 320° |
| 2026-04-12 15:23 | 0.91804 | 125.12453 | 11220 ft | 297 kts | 320° |
| 2026-04-12 15:23 | 0.93400 | 125.11190 | 10847 ft | 288 kts | 320° |
| 2026-04-12 15:23 | 0.94956 | 125.09958 | 10510 ft | 283 kts | 320° |
| 2026-04-12 15:23 | 0.96480 | 125.08751 | 10176 ft | 283 kts | 320° |
| 2026-04-12 15:24 | 0.98026 | 125.07527 | 9826 ft | 284 kts | 320° |
| 2026-04-12 15:24 | 0.99580 | 125.06297 | 9434 ft | 285 kts | 320° |
| 2026-04-12 15:24 | 1.01135 | 125.05066 | 9071 ft | 285 kts | 320° |
| 2026-04-12 15:24 | 1.02692 | 125.03834 | 8715 ft | 285 kts | 320° |
| 2026-04-12 15:25 | 1.04244 | 125.02605 | 8361 ft | 284 kts | 320° |
| 2026-04-12 15:25 | 1.05792 | 125.01379 | 8009 ft | 284 kts | 320° |
| 2026-04-12 15:25 | 1.07340 | 125.00153 | 7662 ft | 284 kts | 320° |
| 2026-04-12 15:25 | 1.08888 | 124.98928 | 7312 ft | 284 kts | 320° |
| 2026-04-12 15:26 | 1.10421 | 124.97727 | 6977 ft | 283 kts | 323° |
| 2026-04-12 15:26 | 1.12205 | 124.96904 | 6705 ft | 282 kts | 339° |
| 2026-04-12 15:26 | 1.14037 | 124.96262 | 6526 ft | 276 kts | 338° |
| 2026-04-12 15:26 | 1.15826 | 124.95627 | 6347 ft | 270 kts | 339° |
| 2026-04-12 15:27 | 1.17575 | 124.95008 | 6147 ft | 264 kts | 339° |
| 2026-04-12 15:27 | 1.19296 | 124.94400 | 5944 ft | 261 kts | 339° |
| 2026-04-12 15:27 | 1.21019 | 124.93792 | 5766 ft | 262 kts | 339° |
| 2026-04-12 15:27 | 1.22729 | 124.93189 | 5568 ft | 257 kts | 339° |
| 2026-04-12 15:28 | 1.24396 | 124.92601 | 5389 ft | 252 kts | 339° |
| 2026-04-12 15:28 | 1.26034 | 124.92024 | 5243 ft | 248 kts | 339° |
| 2026-04-12 15:28 | 1.27702 | 124.91784 | 5069 ft | 245 kts | 1° |
| 2026-04-12 15:28 | 1.29387 | 124.91841 | 4837 ft | 242 kts | 359° |
| 2026-04-12 15:29 | 1.31063 | 124.91867 | 4596 ft | 239 kts | 359° |
| 2026-04-12 15:29 | 1.32728 | 124.91908 | 4450 ft | 240 kts | 359° |
| 2026-04-12 15:29 | 1.34399 | 124.91956 | 4267 ft | 241 kts | 359° |
| 2026-04-12 15:29 | 1.36087 | 124.92010 | 3987 ft | 243 kts | 360° |
| 2026-04-12 15:30 | 1.37766 | 124.92066 | 3693 ft | 237 kts | 0° |
| 2026-04-12 15:30 | 1.39400 | 124.92121 | 3363 ft | 232 kts | 360° |
| 2026-04-12 15:30 | 1.40965 | 124.92172 | 3049 ft | 216 kts | 0° |
| 2026-04-12 15:30 | 1.42385 | 124.92219 | 2768 ft | 193 kts | 0° |
| 2026-04-12 15:31 | 1.43660 | 124.92261 | 2505 ft | 173 kts | 0° |
| 2026-04-12 15:31 | 1.44804 | 124.92299 | 2262 ft | 157 kts | 360° |
| 2026-04-12 15:31 | 1.45887 | 124.92335 | 2042 ft | 155 kts | 0° |
| 2026-04-12 15:31 | 1.46966 | 124.92370 | 1814 ft | 155 kts | 1° |
| 2026-04-12 15:32 | 1.48032 | 124.92406 | 1593 ft | 154 kts | 1° |
| 2026-04-12 15:32 | 1.49105 | 124.92442 | 1367 ft | 154 kts | 1° |
| 2026-04-12 15:32 | 1.50169 | 124.92477 | 1142 ft | 153 kts | 1° |
| 2026-04-12 15:32 | 1.51228 | 124.92512 | 918 ft | 152 kts | 1° |
| 2026-04-12 15:33 | 1.51927 | 124.92535 | 767 ft | 151 kts | 1° |
| 2026-04-12 15:33 | 1.52977 | 124.92571 | 546 ft | 152 kts | 2° |
| 2026-04-12 15:33 | 1.54028 | 124.92610 | 346 ft | 148 kts | 360° |
| 2026-04-12 15:33 | 1.54930 | 124.92631 | 340 ft | 102 kts | 2° |
| 2026-04-12 15:34 | 1.55467 | 124.92649 | 340 ft | 70 kts | 2° |
| 2026-04-12 15:34 | 1.55665 | 124.92586 | 339 ft | 12 kts | 276° |
| 2026-04-12 15:34 | 1.55668 | 124.92529 | 339 ft | 11 kts | 269° |
| 2026-04-12 15:34 | 1.55614 | 124.92488 | 339 ft | 12 kts | 186° |
| 2026-04-12 15:35 | 1.55523 | 124.92486 | 339 ft | 14 kts | 181° |
| 2026-04-12 15:35 | 1.55414 | 124.92483 | 338 ft | 17 kts | 182° |
| 2026-04-12 15:35 | 1.55288 | 124.92478 | 338 ft | 19 kts | 182° |
| 2026-04-12 15:35 | 1.55148 | 124.92474 | 339 ft | 21 kts | 182° |
| 2026-04-12 15:36 | 1.54992 | 124.92468 | 338 ft | 23 kts | 182° |
| 2026-04-12 15:36 | 1.54823 | 124.92463 | 339 ft | 25 kts | 182° |
| 2026-04-12 15:36 | 1.54641 | 124.92456 | 337 ft | 27 kts | 182° |
| 2026-04-12 15:36 | 1.54530 | 124.92453 | 339 ft | 8 kts | 181° |
| 2026-04-12 15:37 | 1.54468 | 124.92451 | 339 ft | 10 kts | 181° |
| 2026-04-12 15:37 | 1.54399 | 124.92436 | 337 ft | 7 kts | 208° |
| 2026-04-12 15:37 | 1.54382 | 124.92427 | 336 ft | 2 kts | 207° |
| 2026-04-12 15:37 | 1.54367 | 124.92414 | 339 ft | 3 kts | 250° |
| 2026-04-12 15:38 | 1.54357 | 124.92388 | 336 ft | 5 kts | 253° |
| 2026-04-12 15:38 | 1.54352 | 124.92350 | 339 ft | 0 kts | 263° |
| 2026-04-12 15:38 | 1.54351 | 124.92342 | 339 ft | 1 kts | 263° |
| 2026-04-12 15:38 | 1.54351 | 124.92340 | 339 ft | 0 kts | 263° |